Time;durP1;ratioP1;P1;durP2;ratioP2;P2;SDS_P1;SDS_P2;PMS_P1;PMS_P2;Temp;Humidity;BMP_temperature;BMP_pressure;BME280_temperature;BME280_humidity;BME280_pressure;Samples;Min_cycle;Max_cycle;Signal;HPM_P1;HPM_P2
2021/08/14 00:01:06;;;;;;;6.90;4.80;;;;;;;19.13;82.27;101272.63;4946030;28;20047;-82
2021/08/14 00:03:34;;;;;;;5.85;4.82;;;;;;;19.13;81.76;101278.00;4954483;28;20489;-82
2021/08/14 00:06:01;;;;;;;6.00;4.88;;;;;;;19.01;83.18;101281.25;4933300;28;20043;-82
2021/08/14 00:08:30;;;;;;;5.70;4.75;;;;;;;18.97;83.60;101285.84;4950309;28;20105;-81
2021/08/14 00:10:57;;;;;;;6.28;5.00;;;;;;;18.82;83.60;101289.22;4944019;28;20042;-81
2021/08/14 00:13:23;;;;;;;7.97;5.15;;;;;;;18.85;83.53;101283.75;4950919;28;20098;-81
2021/08/14 00:15:50;;;;;;;5.57;5.05;;;;;;;18.75;84.70;101290.44;4946927;28;20046;-81
2021/08/14 00:18:17;;;;;;;6.00;4.72;;;;;;;18.70;83.69;101292.47;4916017;28;20052;-81
2021/08/14 00:20:44;;;;;;;8.73;5.60;;;;;;;18.71;83.65;101297.72;4931538;28;20058;-82
2021/08/14 00:23:12;;;;;;;7.07;5.47;;;;;;;18.57;84.70;101298.28;4931766;28;20051;-81
2021/08/14 00:25:39;;;;;;;5.95;4.55;;;;;;;18.66;84.15;101301.53;4923605;28;20066;-81
2021/08/14 00:28:05;;;;;;;6.30;4.65;;;;;;;18.54;83.52;101301.13;4937458;28;20131;-82
2021/08/14 00:30:32;;;;;;;6.50;5.00;;;;;;;18.51;84.04;101298.59;4936014;29;20043;-81
2021/08/14 00:32:59;;;;;;;8.02;4.90;;;;;;;18.41;81.50;101299.88;4940259;28;20055;-81
2021/08/14 00:35:25;;;;;;;9.82;5.32;;;;;;;18.43;82.83;101308.75;4954359;28;20057;-81
2021/08/14 00:37:53;;;;;;;8.25;4.60;;;;;;;18.41;79.88;101305.25;4932793;29;20051;-81
2021/08/14 00:40:20;;;;;;;6.45;4.57;;;;;;;18.32;80.09;101302.09;4944003;28;20049;-79
2021/08/14 00:42:47;;;;;;;6.18;4.78;;;;;;;18.34;82.01;101305.59;4936114;29;20039;-80
2021/08/14 00:45:14;;;;;;;7.28;4.70;;;;;;;18.29;81.01;101298.63;4947553;28;20051;-80
2021/08/14 00:47:42;;;;;;;7.47;4.68;;;;;;;18.29;81.08;101303.09;4946042;28;20382;-80
2021/08/14 00:50:10;;;;;;;7.63;4.53;;;;;;;18.19;81.63;101302.63;4937590;28;20508;-81
2021/08/14 00:52:37;;;;;;;8.40;4.30;;;;;;;18.16;81.21;101305.44;4947002;29;20131;-81
2021/08/14 00:55:04;;;;;;;9.60;4.32;;;;;;;18.03;81.86;101308.66;4924860;28;20038;-81
2021/08/14 00:57:31;;;;;;;8.50;4.30;;;;;;;18.03;80.72;101303.31;4938793;29;20122;-81
2021/08/14 01:00:01;;;;;;;6.22;4.35;;;;;;;17.96;81.54;101302.69;4943151;28;20057;-81
2021/08/14 01:02:28;;;;;;;6.00;4.13;;;;;;;18.02;79.37;101305.13;4933777;28;20054;-81
2021/08/14 01:04:55;;;;;;;8.25;3.67;;;;;;;17.94;80.19;101302.75;4943329;28;20046;-81
2021/08/14 01:07:22;;;;;;;7.28;3.72;;;;;;;17.83;80.31;101299.66;4932551;28;20051;-81
2021/08/14 01:09:48;;;;;;;5.63;3.80;;;;;;;17.85;79.34;101299.59;4924639;29;20055;-81
2021/08/14 01:12:16;;;;;;;6.88;3.45;;;;;;;17.81;80.20;101297.97;4924940;28;20065;-81
2021/08/14 01:14:47;;;;;;;7.32;4.38;;;;;;;17.78;79.42;101298.97;4919571;28;20065;-81
2021/08/14 01:17:15;;;;;;;8.40;4.18;;;;;;;17.65;79.68;101303.00;4927909;28;20142;-81
2021/08/14 01:19:46;;;;;;;5.68;3.70;;;;;;;17.61;79.51;101306.75;4916332;28;20042;-81
2021/08/14 01:22:15;;;;;;;5.93;3.65;;;;;;;17.50;79.78;101301.84;4940245;28;20062;-81
2021/08/14 01:24:43;;;;;;;6.30;4.47;;;;;;;17.41;79.97;101304.88;4938861;28;20047;-81
2021/08/14 01:27:13;;;;;;;6.40;3.40;;;;;;;17.33;79.82;101305.16;4950892;28;20046;-81
2021/08/14 01:30:05;;;;;;;7.35;3.78;;;;;;;17.28;79.91;101300.91;4947213;28;20051;-81
2021/08/14 01:32:33;;;;;;;9.70;4.13;;;;;;;17.21;79.88;101308.28;4942209;28;20556;-81
2021/08/14 01:35:03;;;;;;;5.72;3.40;;;;;;;17.15;81.01;101308.50;4949179;28;20047;-80
2021/08/14 01:37:30;;;;;;;7.40;4.13;;;;;;;17.10;81.49;101313.16;4952477;28;20047;-81
2021/08/14 01:40:02;;;;;;;6.10;3.58;;;;;;;16.95;83.14;101313.72;4931670;28;20048;-81
2021/08/14 01:42:28;;;;;;;8.95;4.43;;;;;;;16.92;82.90;101313.84;4921897;29;20067;-80
2021/08/14 01:44:55;;;;;;;6.70;4.20;;;;;;;16.86;83.69;101307.78;4942065;29;20169;-81
2021/08/14 01:47:24;;;;;;;6.57;4.22;;;;;;;16.85;83.72;101313.19;4934741;28;20102;-81
2021/08/14 01:49:51;;;;;;;5.53;4.15;;;;;;;16.77;83.86;101308.13;4944037;28;20042;-80
2021/08/14 01:52:21;;;;;;;8.68;3.75;;;;;;;16.70;83.67;101311.94;4940438;28;20091;-81
2021/08/14 01:54:48;;;;;;;7.22;3.85;;;;;;;16.65;83.50;101312.97;4967141;28;20047;-81
2021/08/14 01:57:16;;;;;;;5.55;3.72;;;;;;;16.54;84.30;101316.03;4936954;28;21626;-81
2021/08/14 01:59:43;;;;;;;5.03;3.67;;;;;;;16.49;85.28;101315.31;4938633;28;20147;-81
2021/08/14 02:02:10;;;;;;;6.97;4.03;;;;;;;16.49;85.43;101318.88;4943078;28;20053;-81
2021/08/14 02:04:38;;;;;;;7.38;4.03;;;;;;;16.47;85.98;101317.16;4933921;28;20445;-81
2021/08/14 02:07:07;;;;;;;8.45;4.38;;;;;;;16.31;87.25;101311.47;4932990;28;20071;-81
2021/08/14 02:09:34;;;;;;;6.30;3.88;;;;;;;16.28;86.66;101317.78;4939498;29;20047;-81
2021/08/14 02:12:00;;;;;;;7.75;4.38;;;;;;;16.23;86.61;101321.53;4954985;28;20039;-80
2021/08/14 02:14:27;;;;;;;7.20;3.80;;;;;;;16.12;86.43;101321.00;4945251;28;20125;-80
2021/08/14 02:16:54;;;;;;;6.75;4.15;;;;;;;16.15;85.57;101324.47;4920519;28;20130;-81
2021/08/14 02:19:21;;;;;;;6.00;3.83;;;;;;;16.01;87.11;101316.91;4959070;28;20042;-80
2021/08/14 02:21:50;;;;;;;7.57;3.63;;;;;;;15.96;87.77;101316.16;4918465;28;20054;-80
2021/08/14 02:24:17;;;;;;;8.60;4.20;;;;;;;15.92;87.84;101317.22;4945505;28;20145;-80
2021/08/14 02:26:43;;;;;;;10.13;4.80;;;;;;;15.86;88.72;101319.19;4927655;28;20042;-80
2021/08/14 02:29:10;;;;;;;6.15;4.30;;;;;;;15.85;88.45;101318.31;4916281;28;20478;-80
2021/08/14 02:31:37;;;;;;;7.50;4.03;;;;;;;15.85;88.21;101314.78;4927523;28;20445;-80
2021/08/14 02:34:04;;;;;;;7.10;4.45;;;;;;;15.88;88.08;101315.53;4914590;28;20046;-80
2021/08/14 02:36:30;;;;;;;7.70;3.95;;;;;;;15.77;89.45;101325.69;4932956;28;20585;-80
2021/08/14 02:38:57;;;;;;;7.80;3.88;;;;;;;15.69;89.40;101323.25;4946978;28;20042;-80
2021/08/14 02:41:27;;;;;;;6.60;4.20;;;;;;;15.60;90.79;101326.16;4920314;28;20039;-80
2021/08/14 02:43:54;;;;;;;6.25;3.70;;;;;;;15.62;89.73;101327.03;4939719;28;20039;-80
2021/08/14 02:46:21;;;;;;;7.15;4.22;;;;;;;15.57;90.65;101320.94;4920777;28;20053;-81
2021/08/14 02:48:48;;;;;;;6.30;3.85;;;;;;;15.51;90.45;101318.47;4928276;28;20075;-81
2021/08/14 02:51:15;;;;;;;6.63;4.55;;;;;;;15.36;91.38;101317.13;4944259;28;20062;-80
2021/08/14 02:53:42;;;;;;;6.07;3.83;;;;;;;15.33;90.33;101311.03;4915253;28;20050;-81
2021/08/14 02:56:12;;;;;;;7.85;3.55;;;;;;;15.29;91.32;101312.03;4930846;28;20413;-80
2021/08/14 02:58:41;;;;;;;9.50;4.45;;;;;;;15.30;90.39;101322.66;4946718;28;20055;-80
2021/08/14 03:01:17;;;;;;;6.10;3.92;;;;;;;15.22;91.07;101327.31;4948333;28;20563;-80
2021/08/14 03:03:44;;;;;;;8.65;4.97;;;;;;;15.19;91.07;101327.41;4926657;28;20039;-81
2021/08/14 03:06:24;;;;;;;7.90;4.00;;;;;;;15.11;92.08;101324.06;4929072;29;20055;-81
2021/08/14 03:08:51;;;;;;;6.40;4.35;;;;;;;14.99;92.39;101325.31;4929354;28;20047;-79
2021/08/14 03:11:17;;;;;;;7.38;4.05;;;;;;;14.97;92.86;101321.84;4941666;28;20759;-82
2021/08/14 03:13:44;;;;;;;6.28;4.38;;;;;;;14.96;nan;101327.16;4929819;28;20075;-79
2021/08/14 03:16:11;;;;;;;7.00;4.28;;;;;;;14.92;94.29;101319.28;4944143;28;20042;-80
2021/08/14 03:18:38;;;;;;;11.23;5.38;;;;;;;14.98;94.02;101320.03;4931463;28;20068;-79
2021/08/14 03:21:07;;;;;;;6.25;4.22;;;;;;;14.97;92.83;101313.84;4941465;28;20098;-79
2021/08/14 03:23:34;;;;;;;9.93;4.40;;;;;;;14.93;93.68;101315.69;4946362;28;20535;-80
2021/08/14 03:26:01;;;;;;;8.88;4.45;;;;;;;14.88;93.68;101311.41;4937502;28;20125;-81
2021/08/14 03:28:27;;;;;;;5.13;4.15;;;;;;;14.85;95.26;101324.81;4938060;28;20070;-81
2021/08/14 03:30:54;;;;;;;10.38;5.38;;;;;;;14.88;94.01;101330.03;4929871;28;20043;-80
2021/08/14 03:33:21;;;;;;;7.40;4.43;;;;;;;14.87;94.00;101325.63;4925160;28;20051;-79
2021/08/14 03:35:49;;;;;;;7.45;4.45;;;;;;;14.77;95.12;101334.78;4922343;28;20563;-81
2021/08/14 03:38:16;;;;;;;8.73;4.35;;;;;;;14.75;95.22;101337.50;4925394;28;20070;-81
2021/08/14 03:40:42;;;;;;;7.40;5.22;;;;;;;14.78;94.79;101342.72;4955118;28;20049;-78
2021/08/14 03:43:09;;;;;;;7.57;4.78;;;;;;;14.70;95.14;101343.84;4927286;29;20485;-81
2021/08/14 03:45:36;;;;;;;7.80;4.95;;;;;;;14.59;96.64;101337.03;4918188;28;20047;-81
2021/08/14 03:48:03;;;;;;;8.48;4.78;;;;;;;14.63;96.39;101343.16;4935405;28;20575;-79
2021/08/14 03:50:30;;;;;;;7.88;5.45;;;;;;;14.61;96.20;101345.81;4948025;28;20039;-79
2021/08/14 03:52:56;;;;;;;6.80;4.78;;;;;;;14.55;96.64;101351.34;4922221;28;20642;-81
2021/08/14 03:55:23;;;;;;;6.40;4.53;;;;;;;14.47;97.21;101353.31;4929585;29;20047;-78
2021/08/14 03:57:49;;;;;;;7.45;4.60;;;;;;;14.44;98.13;101344.50;4927798;28;20488;-79
2021/08/14 04:00:16;;;;;;;5.57;3.90;;;;;;;14.46;97.41;101345.34;4938020;28;20568;-79
2021/08/14 04:02:43;;;;;;;7.63;4.30;;;;;;;14.49;96.97;101343.50;4918729;28;20054;-79
2021/08/14 04:05:10;;;;;;;6.15;4.68;;;;;;;14.49;97.63;101343.50;4931522;28;20060;-80
2021/08/14 04:07:37;;;;;;;6.40;4.75;;;;;;;14.51;96.99;101343.47;4940921;28;20503;-79
2021/08/14 04:10:03;;;;;;;7.07;4.47;;;;;;;14.51;97.05;101348.78;4936761;28;20448;-79
2021/08/14 04:12:30;;;;;;;6.25;4.13;;;;;;;14.42;98.04;101336.56;4938338;28;20046;-78
2021/08/14 04:14:59;;;;;;;7.40;5.03;;;;;;;14.47;97.60;101336.50;4929629;28;20496;-79
2021/08/14 04:17:33;;;;;;;7.53;4.77;;;;;;;14.47;96.98;101337.38;4937145;28;20105;-79
2021/08/14 04:20:00;;;;;;;6.95;4.47;;;;;;;14.42;97.12;101338.34;4912645;28;20568;-78
2021/08/14 04:22:27;;;;;;;7.07;4.40;;;;;;;14.38;97.59;101337.56;4933538;28;20508;-80
2021/08/14 04:24:54;;;;;;;8.98;4.03;;;;;;;14.46;96.12;101340.94;4934581;28;20417;-78
2021/08/14 04:27:21;;;;;;;6.80;4.00;;;;;;;14.36;97.09;101340.22;4945369;28;20043;-81
2021/08/14 04:29:48;;;;;;;7.35;4.22;;;;;;;14.39;97.07;101347.28;4942190;28;20047;-81
2021/08/14 04:32:14;;;;;;;7.25;5.05;;;;;;;14.32;97.55;101345.69;4928061;28;20426;-81
2021/08/14 04:34:41;;;;;;;6.07;4.20;;;;;;;14.33;98.56;101345.63;4937001;28;20114;-79
2021/08/14 04:37:08;;;;;;;7.97;4.28;;;;;;;14.40;98.30;101346.38;4924405;29;20524;-80
2021/08/14 04:39:34;;;;;;;10.07;4.75;;;;;;;14.42;98.17;101343.66;4928370;28;20101;-80
2021/08/14 04:42:01;;;;;;;8.48;4.28;;;;;;;14.46;98.10;101348.91;4942618;28;20062;-80
2021/08/14 04:44:27;;;;;;;6.32;4.50;;;;;;;14.47;98.42;101347.13;4945511;28;20054;-81
2021/08/14 04:46:54;;;;;;;9.07;4.57;;;;;;;14.51;98.34;101343.47;4928922;28;20106;-80
2021/08/14 04:49:21;;;;;;;8.05;4.72;;;;;;;14.56;97.54;101344.22;4936230;28;20136;-80
2021/08/14 04:51:47;;;;;;;6.68;4.53;;;;;;;14.55;97.45;101345.16;4932326;28;20043;-81
2021/08/14 04:54:14;;;;;;;7.47;4.78;;;;;;;14.53;98.29;101338.97;4936493;28;20051;-80
2021/08/14 04:56:41;;;;;;;5.93;4.40;;;;;;;14.59;98.20;101334.38;4925521;28;20054;-80
2021/08/14 04:59:07;;;;;;;8.15;4.93;;;;;;;14.62;98.71;101339.59;4924504;28;20509;-82
2021/08/14 05:01:34;;;;;;;8.73;4.60;;;;;;;14.61;99.19;101343.16;4938828;28;20045;-81
2021/08/14 05:04:01;;;;;;;7.63;4.88;;;;;;;14.66;100.00;101345.72;4904428;28;20047;-81
2021/08/14 05:06:28;;;;;;;7.35;4.38;;;;;;;14.75;100.00;101345.47;4925494;29;20062;-81
2021/08/14 05:08:54;;;;;;;6.95;4.45;;;;;;;14.84;100.00;101344.34;4917305;28;20062;-81
2021/08/14 05:11:21;;;;;;;8.55;4.70;;;;;;;14.90;100.00;101344.19;4934279;28;20043;-80
2021/08/14 05:13:48;;;;;;;8.05;4.40;;;;;;;14.97;100.00;101342.25;4926766;28;20047;-80
2021/08/14 05:16:14;;;;;;;9.90;4.90;;;;;;;15.05;100.00;101337.56;4941226;28;20046;-81
2021/08/14 05:18:41;;;;;;;11.25;5.43;;;;;;;15.13;100.00;101347.09;4927303;29;20055;-81
2021/08/14 05:21:08;;;;;;;6.95;4.50;;;;;;;15.23;100.00;101352.16;4927138;28;20094;-81
2021/08/14 05:23:34;;;;;;;12.68;5.85;;;;;;;15.34;100.00;101340.25;4922787;28;20049;-80
2021/08/14 05:26:01;;;;;;;6.82;4.55;;;;;;;15.45;100.00;101345.25;4935459;28;20066;-80
2021/08/14 05:28:28;;;;;;;8.10;4.38;;;;;;;15.49;100.00;101357.59;4936514;28;20042;-80
2021/08/14 05:30:54;;;;;;;8.48;4.97;;;;;;;15.66;100.00;101360.66;4923607;28;20094;-80
2021/08/14 05:33:21;;;;;;;7.93;4.57;;;;;;;15.72;100.00;101359.56;4920554;28;20067;-80
2021/08/14 05:35:48;;;;;;;9.40;4.85;;;;;;;15.86;100.00;101360.03;4935486;28;20054;-80
2021/08/14 05:38:18;;;;;;;9.88;5.57;;;;;;;16.04;99.91;101356.78;4946919;28;20074;-81
2021/08/14 05:40:45;;;;;;;9.48;4.55;;;;;;;16.19;98.77;101351.88;4912901;28;20048;-80
2021/08/14 05:43:11;;;;;;;8.38;5.25;;;;;;;16.32;98.70;101364.78;4940333;28;20051;-81
2021/08/14 05:45:38;;;;;;;6.63;4.75;;;;;;;16.44;98.99;101358.13;4920348;28;20050;-80
2021/08/14 05:48:06;;;;;;;9.38;4.57;;;;;;;16.64;98.36;101368.13;4932715;28;20654;-81
2021/08/14 05:50:33;;;;;;;10.63;5.18;;;;;;;16.87;94.89;101370.91;4917929;28;20042;-81
2021/08/14 05:53:03;;;;;;;7.97;4.18;;;;;;;17.02;91.85;101373.97;4925389;28;20091;-81
2021/08/14 05:55:31;;;;;;;7.38;4.43;;;;;;;17.15;90.21;101365.47;4936471;28;20416;-80
2021/08/14 05:57:57;;;;;;;8.30;4.10;;;;;;;17.27;87.66;101356.13;4951877;28;20051;-82
2021/08/14 06:00:24;;;;;;;7.35;4.00;;;;;;;17.31;87.61;101362.22;4927048;28;20046;-82
2021/08/14 06:02:53;;;;;;;6.05;4.35;;;;;;;17.44;88.29;101358.16;4924970;28;20043;-81
2021/08/14 06:05:20;;;;;;;9.25;3.97;;;;;;;17.44;85.41;101361.72;4938126;29;20138;-82
2021/08/14 06:07:48;;;;;;;6.20;3.67;;;;;;;17.55;85.80;101358.63;4930893;28;20043;-82
2021/08/14 06:10:16;;;;;;;7.47;4.43;;;;;;;17.61;84.92;101360.19;4930791;29;20043;-82
2021/08/14 06:12:43;;;;;;;7.00;4.03;;;;;;;17.57;85.51;101355.88;4914231;29;20039;-82
2021/08/14 06:15:11;;;;;;;9.60;4.35;;;;;;;17.60;85.86;101355.78;4939292;28;20046;-82
2021/08/14 06:17:38;;;;;;;9.75;4.07;;;;;;;17.68;84.83;101354.56;4935737;28;20130;-82
2021/08/14 06:20:06;;;;;;;12.70;4.90;;;;;;;17.76;85.01;101364.13;4938743;28;20094;-82
2021/08/14 06:22:35;;;;;;;6.82;3.35;;;;;;;17.89;81.19;101357.34;4937941;28;20054;-82
2021/08/14 06:25:02;;;;;;;8.48;4.20;;;;;;;18.00;80.48;101331.94;4917065;28;20044;-83
2021/08/14 06:27:29;;;;;;;8.82;4.03;;;;;;;19.00;77.32;101343.75;4920789;29;20050;-82
2021/08/14 06:29:56;;;;;;;6.60;3.22;;;;;;;20.94;67.90;101345.09;4933741;28;20047;-81
2021/08/14 06:32:22;;;;;;;10.38;3.78;;;;;;;22.26;61.84;101341.38;4919824;29;20050;-82
2021/08/14 06:34:49;;;;;;;9.32;3.45;;;;;;;23.33;54.51;101351.09;4906819;29;20110;-82
2021/08/14 06:37:16;;;;;;;8.07;3.20;;;;;;;23.73;55.74;101354.84;4940055;28;20101;-79
2021/08/14 06:39:42;;;;;;;8.15;2.95;;;;;;;24.52;53.80;101344.19;5020500;23;20100;-77
2021/08/14 06:42:09;;;;;;;5.88;2.60;;;;;;;24.78;52.49;101344.22;4936077;29;20035;-77
2021/08/14 06:44:37;;;;;;;6.82;2.90;;;;;;;25.04;50.58;101348.72;4949630;28;20478;-79
2021/08/14 06:47:03;;;;;;;8.30;2.97;;;;;;;24.63;52.29;101355.13;4937279;28;20043;-78
2021/08/14 06:49:30;;;;;;;9.55;3.63;;;;;;;24.18;51.68;101342.00;4952978;28;20407;-77
2021/08/14 06:51:57;;;;;;;9.73;3.17;;;;;;;23.96;53.86;101354.19;4932766;29;20043;-77
2021/08/14 06:54:24;;;;;;;7.18;3.30;;;;;;;23.55;54.38;101357.72;4926224;28;20094;-77
2021/08/14 06:56:50;;;;;;;8.23;2.97;;;;;;;23.36;56.03;101362.53;4934799;28;20093;-79
2021/08/14 06:59:17;;;;;;;5.82;3.22;;;;;;;23.19;56.73;101354.63;4934783;28;20046;-79
2021/08/14 07:01:44;;;;;;;7.45;2.63;;;;;;;22.88;56.92;101364.63;4928217;28;20102;-79
2021/08/14 07:04:11;;;;;;;8.32;3.17;;;;;;;22.59;58.99;101360.06;4951675;28;20043;-77
2021/08/14 07:06:38;;;;;;;6.90;3.33;;;;;;;22.17;59.71;101365.19;4936436;28;20113;-77
2021/08/14 07:09:04;;;;;;;13.15;4.35;;;;;;;21.57;60.74;101370.34;4916646;28;20046;-78
2021/08/14 07:11:31;;;;;;;8.43;3.60;;;;;;;21.31;62.39;101373.59;4927522;29;20051;-77
2021/08/14 07:13:58;;;;;;;10.25;3.72;;;;;;;21.18;63.80;101375.16;4936637;28;20045;-78
2021/08/14 07:16:24;;;;;;;7.43;3.22;;;;;;;21.11;64.50;101361.19;4934889;29;20614;-77
2021/08/14 07:18:51;;;;;;;8.20;3.35;;;;;;;20.97;64.93;101361.91;4931243;29;20039;-78
2021/08/14 07:21:18;;;;;;;10.13;3.83;;;;;;;20.93;64.91;101363.00;4960022;28;20047;-79
2021/08/14 07:23:45;;;;;;;7.35;3.35;;;;;;;20.69;64.96;101357.13;4930742;28;20586;-78
2021/08/14 07:26:11;;;;;;;8.13;3.75;;;;;;;20.74;66.00;101360.41;4952417;28;20041;-78
2021/08/14 07:28:38;;;;;;;7.47;3.83;;;;;;;20.89;67.38;101368.63;4937786;28;20042;-79
2021/08/14 07:31:05;;;;;;;14.65;4.90;;;;;;;20.92;66.17;101365.78;4935453;28;20053;-78
2021/08/14 07:33:32;;;;;;;8.82;4.13;;;;;;;20.91;67.05;101372.97;4920041;28;20523;-77
2021/08/14 07:36:01;;;;;;;10.73;4.10;;;;;;;20.96;66.43;101367.38;4967979;28;20121;-79
2021/08/14 07:38:28;;;;;;;8.23;4.20;;;;;;;21.11;65.98;101369.25;4935021;28;20042;-78
2021/08/14 07:40:55;;;;;;;9.20;3.50;;;;;;;21.33;67.25;101367.16;4917450;28;20043;-78
2021/08/14 07:43:21;;;;;;;7.85;3.58;;;;;;;21.57;65.54;101372.16;4950322;28;20051;-81
2021/08/14 07:45:48;;;;;;;6.93;3.95;;;;;;;21.95;64.09;101363.78;4963460;28;20049;-78
2021/08/14 07:48:15;;;;;;;9.88;4.38;;;;;;;22.11;63.43;101370.03;4935272;28;20055;-78
2021/08/14 07:50:41;;;;;;;12.60;4.75;;;;;;;22.30;62.34;101368.03;4930122;28;20050;-76
2021/08/14 07:53:08;;;;;;;9.30;3.60;;;;;;;22.26;60.57;101365.59;4939505;28;20035;-77
2021/08/14 07:55:35;;;;;;;6.95;3.95;;;;;;;22.09;60.34;101355.81;4937474;28;20230;-78
2021/08/14 07:58:12;;;;;;;6.82;4.20;;;;;;;22.05;61.14;101356.94;4916817;28;20099;-79
2021/08/14 08:00:39;;;;;;;10.20;3.72;;;;;;;22.32;61.80;101363.44;4915705;28;20047;-77
2021/08/14 08:03:08;;;;;;;8.05;4.05;;;;;;;22.50;60.12;101363.31;4936623;28;20094;-78
2021/08/14 08:05:35;;;;;;;6.40;3.28;;;;;;;22.52;59.76;101356.00;4938264;28;20053;-78
2021/08/14 08:08:05;;;;;;;9.05;3.58;;;;;;;22.75;60.63;101345.59;4942886;29;20047;-79
2021/08/14 08:10:33;;;;;;;6.95;3.42;;;;;;;22.83;58.30;101344.25;4965115;28;20053;-78
2021/08/14 08:13:00;;;;;;;6.60;3.55;;;;;;;22.91;57.04;101353.63;4952088;28;20070;-78
2021/08/14 08:15:27;;;;;;;6.88;3.40;;;;;;;23.01;56.85;101345.84;4938691;29;20385;-78
2021/08/14 08:17:54;;;;;;;10.30;3.65;;;;;;;23.07;55.75;101337.41;4917316;28;20042;-78
2021/08/14 08:20:21;;;;;;;7.28;3.47;;;;;;;23.11;56.33;101341.63;4930781;28;20074;-79
2021/08/14 08:22:48;;;;;;;7.25;3.38;;;;;;;23.30;55.72;101349.44;4941742;28;20167;-79
2021/08/14 08:25:17;;;;;;;8.38;3.25;;;;;;;22.94;57.61;101339.09;4945981;28;20090;-78
2021/08/14 08:27:46;;;;;;;6.18;3.25;;;;;;;23.14;56.64;101327.09;4950300;28;20049;-77
2021/08/14 08:30:14;;;;;;;7.55;3.35;;;;;;;23.24;56.76;101328.25;4944230;28;20516;-77
2021/08/14 08:32:41;;;;;;;12.77;3.67;;;;;;;23.15;55.33;101323.44;4933212;28;20047;-81
2021/08/14 08:35:09;;;;;;;6.78;3.15;;;;;;;22.88;53.39;101331.41;4935946;28;20049;-79
2021/08/14 08:37:35;;;;;;;7.15;2.90;;;;;;;22.90;54.27;101327.66;4947880;28;20801;-78
2021/08/14 08:40:04;;;;;;;6.30;3.15;;;;;;;22.57;55.76;101330.53;4931067;28;20576;-77
2021/08/14 08:42:30;;;;;;;6.78;2.78;;;;;;;22.64;55.56;101320.28;4931173;28;20039;-80
2021/08/14 08:44:58;;;;;;;8.05;3.35;;;;;;;23.11;53.65;101316.50;4953207;28;20125;-79
2021/08/14 08:47:28;;;;;;;3.90;2.65;;;;;;;23.42;53.22;101319.00;4954584;28;20089;-79
2021/08/14 08:49:58;;;;;;;5.22;2.88;;;;;;;23.70;51.80;101317.25;4916883;28;20051;-78
2021/08/14 08:52:25;;;;;;;7.57;3.10;;;;;;;23.89;52.06;101314.25;4952812;28;20065;-80
2021/08/14 08:54:52;;;;;;;7.05;3.08;;;;;;;23.71;51.71;101311.78;4937065;28;20050;-79
2021/08/14 08:57:19;;;;;;;6.93;3.00;;;;;;;23.63;50.59;101310.50;4953828;28;20069;-77
2021/08/14 08:59:47;;;;;;;6.13;2.75;;;;;;;23.75;52.22;101309.75;4953310;28;20492;-79
2021/08/14 09:02:26;;;;;;;8.98;2.67;;;;;;;23.83;51.83;101310.97;4954332;28;20050;-81
2021/08/14 09:05:11;;;;;;;5.05;2.95;;;;;;;23.70;50.09;101304.63;4939890;28;20098;-78
2021/08/14 09:07:39;;;;;;;10.10;3.70;;;;;;;23.69;50.62;101302.91;4951186;28;20143;-81
2021/08/14 09:10:11;;;;;;;4.53;2.65;;;;;;;23.55;52.72;101309.19;4925092;28;20047;-78
2021/08/14 09:12:41;;;;;;;7.65;2.80;;;;;;;23.56;52.63;101304.66;4951690;28;20035;-80
2021/08/14 09:15:16;;;;;;;4.25;2.80;;;;;;;23.55;52.34;101305.63;4952100;28;20646;-77
2021/08/14 09:17:44;;;;;;;6.20;2.85;;;;;;;23.34;51.64;101299.75;4935223;28;20047;-81
2021/08/14 09:20:12;;;;;;;5.40;3.17;;;;;;;23.28;52.35;101297.44;4911268;28;20047;-79
2021/08/14 09:22:43;;;;;;;5.18;2.83;;;;;;;23.34;52.82;101297.06;4937743;28;20042;-79
2021/08/14 09:25:11;;;;;;;4.32;2.50;;;;;;;23.36;53.00;101297.81;4942173;28;20050;-81
2021/08/14 09:27:49;;;;;;;5.28;2.80;;;;;;;23.51;52.09;101294.13;4956932;28;20428;-80
2021/08/14 09:30:16;;;;;;;5.78;3.08;;;;;;;23.53;51.75;101288.63;4956243;28;20049;-81
2021/08/14 09:32:43;;;;;;;4.10;2.80;;;;;;;23.51;51.89;101295.97;4947602;28;20047;-79
2021/08/14 09:35:11;;;;;;;6.18;3.00;;;;;;;23.54;52.66;101291.25;4920551;28;20042;-78
2021/08/14 09:37:38;;;;;;;5.95;2.90;;;;;;;23.37;50.76;101287.91;4950822;28;20050;-77
2021/08/14 09:40:05;;;;;;;5.25;3.03;;;;;;;23.38;52.22;101285.13;4960540;28;20047;-77
2021/08/14 09:42:49;;;;;;;4.88;3.03;;;;;;;23.18;54.06;101286.38;4972429;28;20042;-78
2021/08/14 09:45:17;;;;;;;4.20;2.38;;;;;;;23.23;51.50;101284.25;4952368;28;20051;-77
2021/08/14 09:47:46;;;;;;;5.95;2.88;;;;;;;23.39;51.50;101286.00;4971576;28;20047;-79
2021/08/14 09:50:13;;;;;;;4.30;3.03;;;;;;;23.73;51.32;101282.00;4953330;28;20042;-78
2021/08/14 09:52:41;;;;;;;4.80;2.60;;;;;;;23.75;51.11;101282.75;4969183;28;20051;-79
2021/08/14 09:55:21;;;;;;;5.82;3.35;;;;;;;23.67;52.06;101282.41;4939195;28;20062;-79
2021/08/14 09:58:09;;;;;;;8.23;2.85;;;;;;;23.39;52.00;101284.16;4941710;28;20047;-79
2021/08/14 10:00:36;;;;;;;5.20;2.65;;;;;;;23.24;52.14;101286.00;4967114;28;20657;-82
2021/08/14 10:03:03;;;;;;;4.32;2.60;;;;;;;23.10;52.42;101285.13;4934993;29;20386;-81
2021/08/14 10:05:32;;;;;;;4.28;2.80;;;;;;;23.06;52.52;101283.59;4951371;28;20046;-80
2021/08/14 10:08:00;;;;;;;17.08;3.72;;;;;;;23.19;52.88;101279.16;4966971;28;20045;-77
2021/08/14 10:10:27;;;;;;;4.55;2.90;;;;;;;23.15;51.93;101274.94;4953661;28;20039;-79
2021/08/14 10:12:57;;;;;;;6.00;2.80;;;;;;;23.16;52.70;101265.88;4930792;29;20086;-79
2021/08/14 10:15:25;;;;;;;7.90;3.67;;;;;;;23.55;53.26;101271.41;4937550;29;20134;-78
2021/08/14 10:17:52;;;;;;;6.15;2.70;;;;;;;23.92;52.18;101266.31;4932858;29;20047;-77
2021/08/14 10:20:19;;;;;;;7.95;3.03;;;;;;;24.22;51.21;101274.19;4953495;28;20644;-77
2021/08/14 10:22:47;;;;;;;7.63;2.80;;;;;;;24.22;49.24;101267.94;4936543;29;20054;-78
2021/08/14 10:25:20;;;;;;;15.07;3.95;;;;;;;24.24;50.33;101258.75;4942031;29;20543;-77
2021/08/14 10:27:55;;;;;;;6.25;2.78;;;;;;;24.15;51.14;101257.53;4911365;29;20051;-79
2021/08/14 10:30:37;;;;;;;5.60;3.08;;;;;;;23.97;49.39;101245.28;4952772;28;20042;-78
2021/08/14 10:33:05;;;;;;;6.32;3.10;;;;;;;23.76;50.46;101246.72;4952596;28;20074;-78
2021/08/14 10:35:33;;;;;;;5.47;3.40;;;;;;;23.42;50.47;101248.03;4933567;28;20791;-79
2021/08/14 10:38:00;;;;;;;29.05;4.80;;;;;;;23.34;51.74;101243.13;4955500;28;20050;-80
2021/08/14 10:40:57;;;;;;;8.65;6.68;;;;;;;23.68;50.71;101240.97;4936839;28;20039;-78
2021/08/14 10:43:52;;;;;;;10.25;3.85;;;;;;;24.02;49.33;101235.03;4956817;28;20043;-79
2021/08/14 10:46:31;;;;;;;3.75;2.53;;;;;;;24.42;48.54;101227.81;4944065;28;20065;-77
2021/08/14 10:48:58;;;;;;;5.30;2.63;;;;;;;24.42;47.66;101224.25;4941181;28;20070;-79
2021/08/14 10:51:51;;;;;;;5.05;2.88;;;;;;;24.17;48.78;101235.84;4934260;28;20042;-78
2021/08/14 10:54:30;;;;;;;5.82;2.47;;;;;;;24.04;48.93;101235.78;4940118;28;20046;-79
2021/08/14 10:57:04;;;;;;;5.20;2.80;;;;;;;23.91;49.10;101224.09;4948957;28;20031;-79
2021/08/14 10:59:37;;;;;;;4.75;2.20;;;;;;;24.10;49.47;101234.50;4915343;28;20066;-79
2021/08/14 11:02:07;;;;;;;4.88;2.40;;;;;;;24.28;49.17;101224.28;4948154;28;20047;-79
2021/08/14 11:04:46;;;;;;;10.15;2.92;;;;;;;24.44;49.07;101216.88;4952894;28;20042;-78
2021/08/14 11:07:19;;;;;;;3.67;2.20;;;;;;;24.67;48.13;101215.28;4936983;28;20047;-78
2021/08/14 11:09:58;;;;;;;6.05;3.50;;;;;;;25.17;48.40;101213.53;4953470;28;20058;-79
2021/08/14 11:12:36;;;;;;;4.95;3.10;;;;;;;25.37;48.03;101217.47;4955567;28;20069;-79
2021/08/14 11:15:33;;;;;;;6.68;3.10;;;;;;;25.20;46.97;101205.19;4936797;28;20042;-79
2021/08/14 11:18:01;;;;;;;5.82;3.47;;;;;;;24.61;45.66;101211.16;4951544;28;20062;-80
2021/08/14 11:20:41;;;;;;;4.90;2.50;;;;;;;24.76;47.46;101198.41;4950664;28;20050;-79
2021/08/14 11:23:21;;;;;;;5.03;2.78;;;;;;;25.16;47.83;101198.28;4954771;28;21922;-78
2021/08/14 11:25:48;;;;;;;4.80;3.13;;;;;;;25.49;48.21;101198.50;4946462;28;20050;-80
2021/08/14 11:28:20;;;;;;;5.35;2.60;;;;;;;25.64;45.73;101184.78;4939368;28;20563;-80
2021/08/14 11:30:55;;;;;;;10.30;5.97;;;;;;;25.60;44.27;101180.59;4932751;28;20532;-79